Time;durP1;ratioP1;P1;durP2;ratioP2;P2;SDS_P1;SDS_P2;PMS_P1;PMS_P2;Temp;Humidity;BMP_temperature;BMP_pressure;BME280_temperature;BME280_humidity;BME280_pressure;Samples;Min_cycle;Max_cycle;Signal;HPM_P1;HPM_P2
2022/08/16 00:00:42;;;;;;;11.07;7.55;;;;;;;14.60;100.00;97756.78;5045923;28;20088;-66
2022/08/16 00:03:09;;;;;;;9.45;6.70;;;;;;;14.64;100.00;97762.75;5046943;28;20056;-66
2022/08/16 00:05:36;;;;;;;11.52;7.28;;;;;;;14.64;100.00;97757.47;5045812;28;20380;-66
2022/08/16 00:08:02;;;;;;;11.55;7.70;;;;;;;14.60;100.00;97750.59;5046898;28;20033;-66
2022/08/16 00:10:32;;;;;;;9.48;6.80;;;;;;;14.62;100.00;97759.34;5045625;28;20028;-66
2022/08/16 00:12:58;;;;;;;8.93;7.40;;;;;;;14.53;100.00;97752.69;5045643;28;20049;-66
2022/08/16 00:15:29;;;;;;;14.00;7.75;;;;;;;14.51;100.00;97745.75;5045587;28;20033;-66
2022/08/16 00:17:54;;;;;;;10.55;8.48;;;;;;;14.54;100.00;97753.56;5056663;28;20031;-66
2022/08/16 00:20:21;;;;;;;12.10;8.00;;;;;;;14.60;100.00;97753.25;5065193;28;20169;-66
2022/08/16 00:22:47;;;;;;;10.52;7.78;;;;;;;14.45;100.00;97751.34;5045632;28;20030;-66
2022/08/16 00:25:15;;;;;;;10.23;7.35;;;;;;;14.43;100.00;97750.59;5045435;28;20025;-66
2022/08/16 00:27:41;;;;;;;11.05;7.93;;;;;;;14.46;100.00;97753.91;5045552;28;20028;-66
2022/08/16 00:30:10;;;;;;;11.98;8.43;;;;;;;14.58;100.00;97752.47;5045143;28;20268;-66
2022/08/16 00:32:41;;;;;;;10.20;7.82;;;;;;;14.52;100.00;97752.75;5045071;28;20021;-66
2022/08/16 00:35:08;;;;;;;10.50;6.72;;;;;;;14.37;100.00;97756.16;5045235;28;20021;-66
2022/08/16 00:37:34;;;;;;;9.45;7.72;;;;;;;14.40;100.00;97753.38;5045419;28;20088;-66
2022/08/16 00:39:59;;;;;;;9.48;7.82;;;;;;;14.44;100.00;97747.00;5045129;28;20028;-66
2022/08/16 00:42:30;;;;;;;9.48;8.10;;;;;;;14.47;100.00;97754.78;5045027;28;20029;-66
2022/08/16 00:45:11;;;;;;;9.38;7.90;;;;;;;14.51;100.00;97749.28;5045056;28;20025;-66
2022/08/16 00:47:43;;;;;;;12.00;7.80;;;;;;;14.42;100.00;97747.06;5045251;28;20021;-66
2022/08/16 00:50:09;;;;;;;15.70;8.60;;;;;;;14.31;100.00;97748.53;5045275;28;20213;-66
2022/08/16 00:52:34;;;;;;;10.82;8.07;;;;;;;14.32;100.00;97744.94;5044912;28;20089;-66
2022/08/16 00:55:00;;;;;;;10.15;8.50;;;;;;;14.44;100.00;97744.34;5044978;28;20398;-66
2022/08/16 00:57:26;;;;;;;11.20;7.95;;;;;;;14.40;100.00;97748.91;5058278;28;20048;-66
2022/08/16 00:59:51;;;;;;;13.57;8.40;;;;;;;14.37;100.00;97748.22;5063953;28;20055;-66
2022/08/16 01:02:17;;;;;;;21.80;7.70;;;;;;;14.52;100.00;97752.75;5064316;28;20312;-66
2022/08/16 01:04:43;;;;;;;9.13;7.15;;;;;;;14.63;100.00;97755.75;5064149;28;20017;-66
2022/08/16 01:07:08;;;;;;;11.82;8.50;;;;;;;14.71;100.00;97764.16;5064090;28;20025;-66
2022/08/16 01:09:37;;;;;;;12.57;7.97;;;;;;;14.81;100.00;97765.44;5050337;28;20021;-66
2022/08/16 01:12:04;;;;;;;10.23;7.30;;;;;;;14.84;100.00;97763.50;5044868;28;20025;-66
2022/08/16 01:14:36;;;;;;;8.45;6.90;;;;;;;14.86;100.00;97768.72;5045697;28;20051;-66
2022/08/16 01:17:02;;;;;;;8.50;6.90;;;;;;;14.76;100.00;97763.03;5054445;28;20029;-66
2022/08/16 01:19:41;;;;;;;11.98;7.50;;;;;;;14.67;100.00;97766.13;5063907;28;20074;-66
2022/08/16 01:22:12;;;;;;;8.98;7.50;;;;;;;14.67;100.00;97758.19;5063743;28;20090;-66
2022/08/16 01:25:11;;;;;;;11.97;7.90;;;;;;;14.80;100.00;97766.38;5062218;28;20032;-66
2022/08/16 01:27:48;;;;;;;11.48;7.10;;;;;;;14.87;100.00;97771.28;5062014;28;20037;-66
2022/08/16 01:30:22;;;;;;;12.27;7.47;;;;;;;14.94;100.00;97771.84;5044258;28;20236;-66
2022/08/16 01:32:49;;;;;;;8.80;6.70;;;;;;;14.89;100.00;97763.25;5044570;28;20021;-66
2022/08/16 01:35:19;;;;;;;8.02;6.63;;;;;;;14.93;100.00;97770.13;5047582;28;20067;-66
2022/08/16 01:37:52;;;;;;;8.95;7.10;;;;;;;15.03;100.00;97769.56;5056290;28;20033;-66
2022/08/16 01:40:20;;;;;;;9.50;6.47;;;;;;;15.07;100.00;97767.66;5045366;28;20428;-66
2022/08/16 01:42:48;;;;;;;10.60;6.90;;;;;;;15.07;100.00;97768.47;5049269;28;20032;-66
2022/08/16 01:45:15;;;;;;;9.95;7.03;;;;;;;14.95;100.00;97762.97;5050303;28;20029;-66
2022/08/16 01:47:42;;;;;;;10.88;6.63;;;;;;;14.85;100.00;97756.41;5057954;28;20132;-66
2022/08/16 01:50:07;;;;;;;9.15;7.05;;;;;;;14.90;100.00;97770.25;5061728;28;20025;-66
2022/08/16 01:52:34;;;;;;;10.93;6.47;;;;;;;14.91;100.00;97761.41;5061846;28;20028;-66
2022/08/16 01:55:00;;;;;;;9.85;6.82;;;;;;;14.81;100.00;97754.84;5063356;28;20070;-66
2022/08/16 01:57:26;;;;;;;10.10;7.03;;;;;;;14.76;100.00;97756.88;5046810;28;20245;-66
2022/08/16 01:59:52;;;;;;;12.23;7.55;;;;;;;14.76;100.00;97756.88;5043959;28;20367;-66
2022/08/16 02:02:17;;;;;;;10.13;7.22;;;;;;;14.82;100.00;97767.16;5043910;28;20040;-66
2022/08/16 02:04:43;;;;;;;15.65;8.30;;;;;;;14.69;100.00;97766.06;5044995;28;20344;-66
2022/08/16 02:07:09;;;;;;;10.70;8.38;;;;;;;14.75;100.00;97766.59;5043868;28;20033;-66
2022/08/16 02:09:36;;;;;;;10.55;7.90;;;;;;;14.81;100.00;97770.75;5055306;28;20032;-66
2022/08/16 02:12:05;;;;;;;12.57;7.72;;;;;;;14.87;100.00;97770.41;5063418;28;20075;-66
2022/08/16 02:14:32;;;;;;;11.75;7.10;;;;;;;14.98;100.00;97768.09;5063142;28;20021;-66
2022/08/16 02:17:00;;;;;;;14.25;7.45;;;;;;;15.02;100.00;97770.53;5061486;28;20029;-66
2022/08/16 02:19:27;;;;;;;8.85;7.47;;;;;;;15.02;100.00;97765.22;5046422;28;20029;-66
2022/08/16 02:21:54;;;;;;;9.77;7.18;;;;;;;15.09;100.00;97765.75;5044944;28;20032;-66
2022/08/16 02:24:21;;;;;;;9.18;7.43;;;;;;;15.14;100.00;97763.75;5043953;28;20056;-66
2022/08/16 02:26:46;;;;;;;9.65;7.30;;;;;;;15.16;100.00;97762.72;5043813;28;20063;-66
2022/08/16 02:29:12;;;;;;;12.43;7.20;;;;;;;15.12;100.00;97752.34;5043482;28;20045;-66
2022/08/16 02:31:39;;;;;;;9.25;6.82;;;;;;;15.18;100.00;97762.63;5043598;28;20092;-66
2022/08/16 02:34:06;;;;;;;11.77;7.53;;;;;;;15.17;100.00;97768.88;5044771;28;20049;-66
2022/08/16 02:36:32;;;;;;;11.48;7.50;;;;;;;15.24;100.00;97767.63;5043791;28;20025;-66
2022/08/16 02:39:00;;;;;;;10.93;8.48;;;;;;;15.21;100.00;97754.53;5043778;28;20099;-66
2022/08/16 02:41:26;;;;;;;8.50;6.75;;;;;;;15.25;100.00;97756.06;5043742;28;20309;-66
2022/08/16 02:43:51;;;;;;;9.43;7.13;;;;;;;15.32;100.00;97756.63;5043465;28;20136;-66
2022/08/16 02:46:16;;;;;;;12.68;7.72;;;;;;;15.34;100.00;97760.91;5043518;28;20222;-66
2022/08/16 02:48:42;;;;;;;9.65;7.47;;;;;;;15.32;100.00;97746.03;5043471;28;20025;-66
2022/08/16 02:51:08;;;;;;;11.13;7.32;;;;;;;15.33;100.00;97745.94;5043416;28;20049;-66
2022/08/16 02:53:35;;;;;;;10.13;7.45;;;;;;;15.34;100.00;97754.78;5043427;28;20259;-66
2022/08/16 02:56:01;;;;;;;14.45;8.02;;;;;;;15.26;100.00;97751.63;5046979;28;20221;-66
2022/08/16 02:58:27;;;;;;;11.27;7.80;;;;;;;15.23;100.00;97755.31;5047122;28;20031;-66
2022/08/16 03:00:54;;;;;;;12.15;8.23;;;;;;;15.14;100.00;97758.44;5048901;28;20051;-66
2022/08/16 03:03:20;;;;;;;12.32;8.27;;;;;;;15.07;100.00;97757.88;5046852;28;20024;-66
2022/08/16 03:05:46;;;;;;;11.68;7.72;;;;;;;15.12;100.00;97750.56;5047184;28;20048;-66
2022/08/16 03:08:11;;;;;;;8.68;7.18;;;;;;;15.18;100.00;97752.03;5047030;28;20068;-66
2022/08/16 03:10:37;;;;;;;17.25;8.77;;;;;;;15.18;100.00;97753.84;5061578;28;20088;-66
2022/08/16 03:13:03;;;;;;;10.43;7.53;;;;;;;15.16;100.00;97757.41;5066775;28;20430;-66
2022/08/16 03:15:28;;;;;;;11.60;6.50;;;;;;;15.26;100.00;97747.22;5066688;28;20028;-66
2022/08/16 03:17:55;;;;;;;10.23;7.15;;;;;;;15.32;100.00;97741.59;5066999;28;20025;-66
2022/08/16 03:20:20;;;;;;;9.45;7.72;;;;;;;15.30;100.00;97740.81;5057023;28;20202;-66
2022/08/16 03:22:46;;;;;;;10.77;8.05;;;;;;;15.33;100.00;97727.38;5046546;28;20032;-66
2022/08/16 03:25:13;;;;;;;11.32;7.82;;;;;;;15.34;100.00;97728.25;5046816;28;20028;-66
2022/08/16 03:27:39;;;;;;;10.00;8.05;;;;;;;15.31;100.00;97731.91;5046440;28;20025;-66
2022/08/16 03:30:13;;;;;;;8.95;7.30;;;;;;;15.34;100.00;97731.75;5054964;28;20044;-66
2022/08/16 03:32:39;;;;;;;10.77;7.13;;;;;;;15.37;100.00;97728.97;5066681;28;20313;-66
2022/08/16 03:35:06;;;;;;;10.95;8.60;;;;;;;15.39;100.00;97721.81;5066381;28;20088;-66
2022/08/16 03:37:31;;;;;;;11.23;8.52;;;;;;;15.35;100.00;97725.53;5066514;28;20024;-66
2022/08/16 03:39:57;;;;;;;14.50;8.40;;;;;;;15.29;100.00;97725.84;5064634;28;20033;-66
2022/08/16 03:42:23;;;;;;;11.27;7.63;;;;;;;15.30;100.00;97727.53;5055080;28;20037;-66
2022/08/16 03:44:48;;;;;;;8.48;6.97;;;;;;;15.37;100.00;97726.31;5053849;28;20214;-66
2022/08/16 03:47:14;;;;;;;9.38;7.53;;;;;;;15.42;100.00;97737.56;5046192;28;20053;-66
2022/08/16 03:49:39;;;;;;;12.40;8.05;;;;;;;15.46;100.00;97739.09;5046090;28;20025;-66
2022/08/16 03:52:06;;;;;;;12.20;8.23;;;;;;;15.43;100.00;97743.69;5045982;28;20021;-66
2022/08/16 03:54:32;;;;;;;11.07;7.43;;;;;;;15.47;100.00;97738.16;5046343;28;20216;-66
2022/08/16 03:56:57;;;;;;;11.73;7.65;;;;;;;15.40;100.00;97734.09;5046277;28;20021;-66
2022/08/16 03:59:22;;;;;;;10.65;7.32;;;;;;;15.32;100.00;97730.13;5044471;28;20021;-66
2022/08/16 04:01:48;;;;;;;9.00;7.43;;;;;;;15.36;100.00;97736.97;5046236;28;20017;-66
2022/08/16 04:04:13;;;;;;;13.77;8.25;;;;;;;15.34;100.00;97737.03;5049348;28;20033;-66
2022/08/16 04:06:39;;;;;;;12.63;7.72;;;;;;;15.22;100.00;97737.69;5052008;28;20016;-66
2022/08/16 04:09:04;;;;;;;14.57;7.40;;;;;;;15.21;100.00;97743.94;5054563;28;20324;-66
2022/08/16 04:11:29;;;;;;;10.88;7.53;;;;;;;15.23;100.00;97736.75;5046135;28;20108;-66
2022/08/16 04:13:55;;;;;;;9.73;7.38;;;;;;;15.13;100.00;97743.47;5048162;28;20025;-66
2022/08/16 04:16:20;;;;;;;11.70;7.85;;;;;;;15.05;100.00;97741.22;5045613;28;20033;-66
2022/08/16 04:18:47;;;;;;;13.27;7.40;;;;;;;14.97;100.00;97737.25;5045628;28;20059;-66
2022/08/16 04:21:12;;;;;;;9.23;7.50;;;;;;;14.87;100.00;97743.91;5045743;28;20096;-66
2022/08/16 04:23:37;;;;;;;11.32;7.50;;;;;;;14.82;100.00;97740.66;5045450;28;20283;-66
2022/08/16 04:26:05;;;;;;;13.77;8.60;;;;;;;14.78;100.00;97739.13;5045435;28;20101;-66
2022/08/16 04:28:31;;;;;;;14.50;9.52;;;;;;;14.70;100.00;97742.13;5045221;28;20220;-66
2022/08/16 04:30:56;;;;;;;11.70;9.35;;;;;;;14.69;100.00;97744.88;5045382;28;20033;-66
2022/08/16 04:33:21;;;;;;;12.88;8.85;;;;;;;14.63;100.00;97745.16;5045304;28;20041;-66
2022/08/16 04:35:47;;;;;;;12.25;8.80;;;;;;;14.61;100.00;97749.66;5045317;28;20031;-66
2022/08/16 04:38:12;;;;;;;13.43;8.85;;;;;;;14.63;100.00;97755.75;5045214;28;20028;-66
2022/08/16 04:40:37;;;;;;;13.30;9.25;;;;;;;14.57;100.00;97751.63;5045170;28;20027;-66
2022/08/16 04:43:03;;;;;;;14.35;8.43;;;;;;;14.60;100.00;97755.91;5045061;28;20029;-66
2022/08/16 04:45:29;;;;;;;12.48;8.80;;;;;;;14.61;100.00;97749.66;5045116;28;20017;-66
2022/08/16 04:47:54;;;;;;;13.15;8.85;;;;;;;14.57;100.00;97750.75;5045269;28;20033;-66
2022/08/16 04:50:22;;;;;;;11.00;7.80;;;;;;;14.59;100.00;97754.19;5045240;28;20025;-66
2022/08/16 04:52:49;;;;;;;9.50;7.80;;;;;;;14.74;100.00;97761.38;5044920;28;20084;-66
2022/08/16 04:55:18;;;;;;;10.73;8.15;;;;;;;14.84;100.00;97765.31;5044868;28;20025;-66
2022/08/16 04:57:46;;;;;;;12.35;7.82;;;;;;;14.91;100.00;97764.06;5045081;28;20313;-66
2022/08/16 05:00:15;;;;;;;11.90;7.82;;;;;;;14.90;100.00;97764.97;5044754;28;20325;-66
2022/08/16 05:02:41;;;;;;;13.57;8.48;;;;;;;14.93;100.00;97764.81;5044604;28;20022;-66
2022/08/16 05:05:08;;;;;;;14.88;8.02;;;;;;;14.97;100.00;97777.00;5044962;28;20029;-66
2022/08/16 05:07:34;;;;;;;10.10;8.15;;;;;;;15.10;100.00;97780.75;5044901;28;20331;-66
2022/08/16 05:09:59;;;;;;;10.93;7.93;;;;;;;15.21;100.00;97775.72;5044640;28;20045;-66
2022/08/16 05:12:25;;;;;;;8.98;7.65;;;;;;;15.21;100.00;97775.72;5044657;28;20040;-66
2022/08/16 05:14:50;;;;;;;12.23;8.25;;;;;;;15.25;100.00;97785.22;5044648;28;20396;-66
2022/08/16 05:17:16;;;;;;;11.25;7.30;;;;;;;15.43;100.00;97797.59;5044468;28;20221;-66
2022/08/16 05:19:42;;;;;;;9.43;6.95;;;;;;;15.89;100.00;97780.97;5044345;28;20021;-66
2022/08/16 05:22:07;;;;;;;10.05;6.90;;;;;;;16.39;99.64;97786.16;5044313;28;20022;-66
2022/08/16 05:24:32;;;;;;;9.98;6.85;;;;;;;16.85;97.28;97783.50;5044374;28;20025;-66
2022/08/16 05:26:58;;;;;;;6.95;5.68;;;;;;;17.47;94.29;97795.81;5044312;28;20022;-66
2022/08/16 05:29:24;;;;;;;11.23;6.47;;;;;;;17.98;90.67;97786.44;5044176;28;20041;-66
2022/08/16 05:31:49;;;;;;;8.07;5.50;;;;;;;18.35;87.36;97792.00;5044243;28;20063;-66
2022/08/16 05:34:15;;;;;;;7.03;5.65;;;;;;;18.86;84.16;97793.16;5044221;28;20044;-66
2022/08/16 05:36:41;;;;;;;7.93;5.28;;;;;;;19.22;82.02;97790.72;5044173;28;20042;-66
2022/08/16 05:39:07;;;;;;;9.48;5.28;;;;;;;19.76;80.67;97794.13;5044169;28;20025;-66
2022/08/16 05:41:33;;;;;;;9.40;5.20;;;;;;;20.01;78.85;97791.47;5044063;28;20092;-66
2022/08/16 05:43:59;;;;;;;10.30;4.55;;;;;;;20.32;78.09;97797.25;5044265;28;20024;-66
2022/08/16 05:46:24;;;;;;;6.03;4.38;;;;;;;20.34;77.70;97799.81;5044040;28;20025;-66
2022/08/16 05:48:50;;;;;;;7.10;5.15;;;;;;;20.38;76.30;97802.13;5044102;28;20060;-66
2022/08/16 05:51:15;;;;;;;7.00;4.90;;;;;;;20.54;75.48;97802.72;5043949;28;20021;-66
2022/08/16 05:53:40;;;;;;;6.65;5.00;;;;;;;20.84;74.94;97805.88;5044009;28;20101;-66
2022/08/16 05:56:06;;;;;;;6.28;4.30;;;;;;;20.80;74.85;97804.38;5043935;28;20021;-66
2022/08/16 05:58:31;;;;;;;9.35;5.50;;;;;;;20.76;74.78;97808.22;5044217;28;20025;-66
2022/08/16 06:00:56;;;;;;;10.25;5.32;;;;;;;21.04;75.72;97812.47;5043887;28;20025;-66
2022/08/16 06:03:22;;;;;;;5.43;4.47;;;;;;;21.12;73.92;97810.06;5043795;28;20025;-66
2022/08/16 06:05:47;;;;;;;7.30;4.65;;;;;;;22.00;72.54;97815.75;5043928;28;20317;-66
2022/08/16 06:08:12;;;;;;;10.82;5.22;;;;;;;22.36;70.77;97806.63;5043857;28;20052;-66
2022/08/16 06:10:38;;;;;;;7.40;5.70;;;;;;;22.25;70.35;97814.66;5043780;28;20025;-66
2022/08/16 06:13:03;;;;;;;10.95;4.80;;;;;;;22.66;71.06;97825.66;5043765;28;20032;-66
2022/08/16 06:15:29;;;;;;;8.02;4.55;;;;;;;23.52;68.17;97827.41;5043812;28;20028;-66
2022/08/16 06:17:54;;;;;;;8.48;4.78;;;;;;;23.76;67.07;97819.97;5043807;28;20037;-66
2022/08/16 06:20:26;;;;;;;6.70;5.28;;;;;;;23.84;66.22;97822.00;5043756;28;20116;-66
2022/08/16 06:22:54;;;;;;;7.40;5.03;;;;;;;23.81;66.27;97828.50;5043703;28;20026;-66
2022/08/16 06:25:20;;;;;;;6.28;5.03;;;;;;;24.00;65.83;97823.28;5043764;28;20224;-66
2022/08/16 06:27:46;;;;;;;7.40;5.03;;;;;;;24.75;65.24;97821.13;5043576;28;20044;-66
2022/08/16 06:30:12;;;;;;;7.85;4.95;;;;;;;25.14;62.99;97829.19;5044731;28;20037;-66
2022/08/16 06:32:37;;;;;;;7.57;4.90;;;;;;;25.76;62.24;97830.66;5047875;28;20020;-66
2022/08/16 06:35:03;;;;;;;8.23;5.18;;;;;;;26.01;62.10;97830.09;5047494;28;20021;-66
2022/08/16 06:37:29;;;;;;;9.00;5.70;;;;;;;26.44;59.27;97823.19;5047506;28;20025;-66
2022/08/16 06:39:54;;;;;;;10.13;6.20;;;;;;;26.10;62.81;97823.84;5047685;28;20029;-66
2022/08/16 06:42:20;;;;;;;11.02;6.22;;;;;;;26.91;61.51;97826.69;5047430;28;20240;-66
2022/08/16 06:44:45;;;;;;;11.45;6.55;;;;;;;27.38;59.66;97825.59;5047308;28;20317;-66
2022/08/16 06:47:12;;;;;;;10.48;6.18;;;;;;;27.91;58.60;97817.50;5047318;28;20022;-66
2022/08/16 06:49:38;;;;;;;12.27;6.60;;;;;;;28.57;55.27;97810.53;5047551;28;20067;-66
2022/08/16 06:52:04;;;;;;;11.32;6.63;;;;;;;28.78;55.37;97813.69;5047195;28;20080;-66
2022/08/16 06:54:29;;;;;;;11.15;6.68;;;;;;;28.61;55.77;97815.47;5047163;28;20325;-66
2022/08/16 06:56:55;;;;;;;12.13;7.13;;;;;;;28.81;54.52;97808.81;5047235;28;20340;-66
2022/08/16 06:59:21;;;;;;;12.80;8.20;;;;;;;29.35;53.23;97817.50;5047178;28;20048;-66
2022/08/16 07:01:46;;;;;;;17.13;7.68;;;;;;;29.35;53.31;97814.78;5047023;28;20021;-66
2022/08/16 07:04:11;;;;;;;12.25;7.32;;;;;;;29.18;53.82;97811.16;5046950;28;20044;-66
2022/08/16 07:06:37;;;;;;;11.98;7.68;;;;;;;27.96;55.11;97813.31;5046920;28;20025;-66
2022/08/16 07:09:02;;;;;;;13.95;7.47;;;;;;;28.25;56.92;97813.84;5046902;28;20028;-66
2022/08/16 07:11:28;;;;;;;17.52;8.35;;;;;;;29.12;54.18;97811.81;5046922;28;20060;-66
2022/08/16 07:13:53;;;;;;;15.60;8.40;;;;;;;28.93;53.43;97802.09;5046814;28;20029;-66
2022/08/16 07:16:19;;;;;;;14.45;8.43;;;;;;;28.65;54.95;97814.13;5046801;28;20032;-66
2022/08/16 07:18:46;;;;;;;17.88;8.52;;;;;;;28.71;54.48;97815.34;5046655;28;20094;-66
2022/08/16 07:21:12;;;;;;;15.40;8.60;;;;;;;28.72;55.21;97817.03;5046677;28;20025;-66
2022/08/16 07:23:43;;;;;;;15.70;7.70;;;;;;;29.13;54.23;97827.94;5046608;28;20100;-66
2022/08/16 07:26:13;;;;;;;14.30;8.15;;;;;;;28.69;54.54;97815.50;5046820;28;20018;-66
2022/08/16 07:28:38;;;;;;;14.23;8.65;;;;;;;28.20;55.77;97818.91;5046362;28;20233;-66
2022/08/16 07:31:04;;;;;;;13.52;7.78;;;;;;;28.15;56.13;97817.66;5046485;28;20025;-66
2022/08/16 07:33:33;;;;;;;16.10;8.27;;;;;;;28.79;54.16;97821.66;5046729;28;20017;-66
2022/08/16 07:35:59;;;;;;;16.30;9.25;;;;;;;29.19;53.33;97819.13;5046383;28;20028;-66
2022/08/16 07:38:26;;;;;;;16.83;8.25;;;;;;;29.80;52.79;97817.94;5046331;28;20029;-66
2022/08/16 07:40:53;;;;;;;16.70;8.52;;;;;;;30.48;50.65;97819.25;5045887;28;20075;-66
2022/08/16 07:43:18;;;;;;;10.48;7.68;;;;;;;31.15;48.96;97818.72;5045646;28;20025;-66
2022/08/16 07:45:43;;;;;;;11.75;7.68;;;;;;;31.72;47.77;97822.81;5046194;28;20071;-66
2022/08/16 07:48:09;;;;;;;13.43;7.60;;;;;;;30.16;49.94;97819.28;5046203;28;20037;-66
2022/08/16 07:50:34;;;;;;;16.42;8.27;;;;;;;30.54;49.47;97818.56;5046124;28;20252;-66
2022/08/16 07:53:00;;;;;;;16.67;8.27;;;;;;;30.58;49.97;97819.91;5046172;28;20033;-66
2022/08/16 07:55:25;;;;;;;15.65;7.07;;;;;;;30.74;49.85;97817.16;5045982;28;20021;-66
2022/08/16 07:57:51;;;;;;;12.80;8.80;;;;;;;28.71;53.86;97818.91;5046050;28;20088;-66
2022/08/16 08:00:16;;;;;;;14.18;8.32;;;;;;;28.31;54.18;97813.22;5045957;28;20089;-66
2022/08/16 08:02:44;;;;;;;17.67;8.90;;;;;;;29.00;53.93;97824.78;5045861;28;20221;-66
2022/08/16 08:05:09;;;;;;;17.80;8.85;;;;;;;29.78;51.65;97825.38;5045888;28;20085;-66
2022/08/16 08:07:34;;;;;;;13.27;9.13;;;;;;;30.17;50.75;97831.81;5045834;28;20032;-66
2022/08/16 08:10:00;;;;;;;14.32;8.18;;;;;;;30.98;49.79;97827.97;5045814;28;20048;-66
2022/08/16 08:12:25;;;;;;;16.55;8.57;;;;;;;31.28;48.23;97820.91;5045769;28;20123;-66
2022/08/16 08:14:50;;;;;;;14.55;8.80;;;;;;;31.71;47.28;97821.13;5045792;28;20091;-66
2022/08/16 08:17:16;;;;;;;16.75;8.75;;;;;;;31.19;47.36;97814.59;5045650;28;20025;-66
2022/08/16 08:19:43;;;;;;;12.20;8.00;;;;;;;32.11;46.70;97825.44;5045612;28;20025;-66
2022/08/16 08:22:08;;;;;;;12.43;7.88;;;;;;;32.15;45.80;97819.44;5045779;28;20151;-66
2022/08/16 08:24:36;;;;;;;11.63;6.97;;;;;;;33.08;44.29;97822.59;5045721;28;20312;-66
2022/08/16 08:27:03;;;;;;;13.77;8.45;;;;;;;32.99;45.02;97816.38;5045438;28;20048;-66
2022/08/16 08:29:28;;;;;;;16.77;7.28;;;;;;;33.22;44.13;97825.31;5045332;28;20092;-66
2022/08/16 08:31:54;;;;;;;14.35;8.23;;;;;;;33.12;43.34;97827.47;5045430;28;20344;-66
2022/08/16 08:34:20;;;;;;;18.85;8.80;;;;;;;32.30;44.22;97828.47;5045386;28;20063;-66
2022/08/16 08:36:47;;;;;;;18.33;8.32;;;;;;;32.56;44.02;97828.09;5045282;28;20025;-66
2022/08/16 08:39:14;;;;;;;16.45;9.38;;;;;;;31.36;46.68;97829.84;5045420;28;20092;-66
2022/08/16 08:41:41;;;;;;;16.67;9.75;;;;;;;30.86;47.59;97834.81;5045173;28;20045;-66
2022/08/16 08:44:07;;;;;;;19.77;11.13;;;;;;;31.26;46.17;97831.06;5045058;28;20256;-66
2022/08/16 08:46:32;;;;;;;14.85;8.93;;;;;;;32.21;44.62;97835.03;5045054;28;20021;-66
2022/08/16 08:48:57;;;;;;;29.60;9.15;;;;;;;33.06;44.34;97837.25;5045073;28;20021;-66
2022/08/16 08:51:24;;;;;;;15.60;8.25;;;;;;;33.15;42.80;97842.63;5044983;28;20027;-66
2022/08/16 08:53:50;;;;;;;14.95;8.77;;;;;;;33.17;43.35;97844.13;5044895;28;20043;-66
2022/08/16 08:56:16;;;;;;;17.45;9.05;;;;;;;33.26;42.30;97847.56;5044857;28;20017;-66
2022/08/16 08:58:41;;;;;;;15.10;8.23;;;;;;;33.13;42.35;97847.41;5044847;28;20436;-66
2022/08/16 09:01:07;;;;;;;13.90;8.55;;;;;;;33.38;42.87;97851.56;5044822;28;20325;-66
2022/08/16 09:03:34;;;;;;;15.77;7.85;;;;;;;33.76;42.22;97850.31;5044680;28;20029;-66
2022/08/16 09:06:00;;;;;;;18.50;9.63;;;;;;;31.76;44.84;97835.03;5044700;28;20021;-66
2022/08/16 09:08:26;;;;;;;17.20;9.00;;;;;;;32.52;43.42;97849.41;5044683;28;20256;-66
2022/08/16 09:10:54;;;;;;;18.10;8.82;;;;;;;33.43;42.03;97854.56;5044697;28;20025;-66
2022/08/16 09:13:20;;;;;;;17.95;8.60;;;;;;;34.05;41.81;97861.16;5044816;28;20021;-66
2022/08/16 09:15:47;;;;;;;15.77;8.98;;;;;;;34.60;40.52;97851.19;5044527;28;20028;-66
2022/08/16 09:18:16;;;;;;;16.23;8.25;;;;;;;34.85;39.65;97862.53;5044471;28;20036;-66
2022/08/16 09:20:42;;;;;;;14.20;9.38;;;;;;;33.72;40.36;97855.31;5044471;28;20028;-66
2022/08/16 09:23:07;;;;;;;14.68;9.30;;;;;;;34.46;40.13;97860.31;5044625;28;20221;-66
2022/08/16 09:25:33;;;;;;;16.30;9.18;;;;;;;32.57;43.14;97847.00;5044339;28;20266;-66
2022/08/16 09:27:59;;;;;;;13.20;9.27;;;;;;;31.23;45.63;97853.16;5044224;28;20021;-66
2022/08/16 09:30:25;;;;;;;17.40;10.20;;;;;;;30.76;46.69;97847.75;5044164;28;20056;-66
2022/08/16 09:32:53;;;;;;;18.60;10.70;;;;;;;30.59;47.47;97851.50;5044387;28;20348;-66
2022/08/16 09:35:21;;;;;;;18.65;8.93;;;;;;;31.90;44.96;97858.78;5044230;28;20436;-66
2022/08/16 09:37:47;;;;;;;16.65;9.88;;;;;;;32.64;43.03;97861.56;5044155;28;20025;-66
2022/08/16 09:40:13;;;;;;;13.65;7.68;;;;;;;32.65;42.63;97859.69;5044143;28;20309;-66
2022/08/16 09:42:39;;;;;;;16.85;8.00;;;;;;;30.79;46.65;97850.97;5044019;28;20021;-66
2022/08/16 09:45:07;;;;;;;14.02;8.00;;;;;;;30.09;47.66;97850.84;5044019;28;20025;-66
2022/08/16 09:47:39;;;;;;;10.52;6.82;;;;;;;30.34;47.25;97855.28;5044310;28;20101;-66
2022/08/16 09:50:10;;;;;;;14.20;9.13;;;;;;;30.29;46.77;97854.94;5044280;28;20025;-66
2022/08/16 09:52:36;;;;;;;17.38;8.77;;;;;;;29.55;49.03;97855.00;5043978;28;20017;-66
2022/08/16 09:55:08;;;;;;;14.23;8.63;;;;;;;29.23;49.67;97845.91;5043917;28;20109;-66
2022/08/16 09:57:34;;;;;;;18.38;9.43;;;;;;;29.58;49.87;97849.22;5044204;28;20059;-66
2022/08/16 10:00:00;;;;;;;18.60;8.48;;;;;;;29.51;49.76;97844.66;5043936;28;20025;-66
2022/08/16 10:02:26;;;;;;;19.55;8.95;;;;;;;28.79;50.55;97835.19;5043909;28;20032;-66
2022/08/16 10:04:52;;;;;;;14.05;9.07;;;;;;;28.11;52.20;97844.22;5043477;28;20088;-66
2022/08/16 10:07:18;;;;;;;15.35;9.52;;;;;;;27.98;52.44;97835.66;5043839;28;20029;-66
2022/08/16 10:09:44;;;;;;;14.48;9.57;;;;;;;27.87;53.46;97841.28;5043836;28;20233;-66
2022/08/16 10:14:54;;;;;;;18.42;8.73;;;;;;;27.78;54.31;97841.34;5043860;28;20100;-66
2022/08/16 10:17:20;;;;;;;11.38;7.35;;;;;;;29.09;50.75;97844.66;5044020;28;20029;-66
2022/08/16 10:19:45;;;;;;;12.75;7.55;;;;;;;29.30;50.03;97842.38;5043709;28;20024;-66
2022/08/16 10:22:12;;;;;;;13.25;7.45;;;;;;;28.71;50.85;97824.34;5043633;28;20029;-66
2022/08/16 10:24:39;;;;;;;16.38;8.57;;;;;;;29.66;49.92;97848.41;5043932;28;20032;-66
2022/08/16 10:27:05;;;;;;;12.68;7.90;;;;;;;29.89;48.33;97839.47;5043647;28;20305;-66
2022/08/16 10:29:30;;;;;;;14.68;7.15;;;;;;;29.69;47.79;97842.66;5043423;28;20337;-66
2022/08/16 10:31:56;;;;;;;11.68;7.82;;;;;;;29.00;49.75;97835.63;5043883;28;20029;-66
2022/08/16 10:34:21;;;;;;;11.68;6.07;;;;;;;28.44;49.75;97838.00;5043645;28;20017;-66
2022/08/16 10:36:47;;;;;;;13.95;7.03;;;;;;;28.43;50.20;97832.75;5043564;28;20021;-66
2022/08/16 10:39:13;;;;;;;9.75;6.60;;;;;;;28.14;50.80;97841.19;5043551;28;20036;-66
2022/08/16 10:41:38;;;;;;;9.85;7.47;;;;;;;27.81;51.72;97833.75;5043830;28;20048;-66
2022/08/16 10:44:05;;;;;;;14.05;6.50;;;;;;;29.42;50.14;97851.06;5043471;28;20049;-66
2022/08/16 10:46:30;;;;;;;12.05;7.40;;;;;;;30.39;46.64;97861.00;5043750;28;20025;-66
2022/08/16 10:48:56;;;;;;;13.27;5.90;;;;;;;29.46;47.12;97847.84;5043508;28;20221;-66
2022/08/16 10:51:22;;;;;;;11.45;5.47;;;;;;;28.68;48.15;97835.47;5043503;28;20317;-66
2022/08/16 10:53:47;;;;;;;8.98;5.70;;;;;;;28.05;49.78;97834.00;5043418;28;20025;-66
2022/08/16 10:56:13;;;;;;;9.45;6.07;;;;;;;28.20;51.00;97845.13;5043410;28;20087;-66
2022/08/16 10:58:39;;;;;;;11.52;5.78;;;;;;;29.19;49.65;97858.94;5043401;28;20029;-66
2022/08/16 11:01:07;;;;;;;10.77;6.22;;;;;;;29.99;45.25;97861.00;5043585;28;20017;-66
2022/08/16 11:03:33;;;;;;;11.30;5.97;;;;;;;30.42;45.12;97857.97;5043309;28;20087;-66
2022/08/16 11:05:59;;;;;;;10.70;6.07;;;;;;;29.81;45.81;97857.59;5043374;28;20072;-66
2022/08/16 11:08:25;;;;;;;9.38;6.15;;;;;;;29.71;45.93;97855.06;5043297;28;20029;-66
2022/08/16 11:10:51;;;;;;;15.38;6.10;;;;;;;29.62;46.18;97841.63;5043284;28;20293;-66
2022/08/16 11:13:19;;;;;;;11.05;6.25;;;;;;;28.42;48.13;97833.78;5043262;28;20029;-66
2022/08/16 11:15:45;;;;;;;13.70;5.60;;;;;;;28.27;48.37;97830.78;5043563;28;20237;-66
2022/08/16 11:18:11;;;;;;;12.57;7.07;;;;;;;29.31;47.56;97844.06;5046798;28;20018;-66
2022/08/16 11:20:38;;;;;;;11.57;5.65;;;;;;;29.67;47.50;97850.13;5046733;28;20048;-67
2022/08/16 11:23:04;;;;;;;11.48;5.47;;;;;;;29.97;44.49;97852.19;5046627;28;20336;-67